Time;durP1;ratioP1;P1;durP2;ratioP2;P2;SDS_P1;SDS_P2;PMS_P1;PMS_P2;Temp;Humidity;BMP_temperature;BMP_pressure;BME280_temperature;BME280_humidity;BME280_pressure;Samples;Min_cycle;Max_cycle;Signal;HPM_P1;HPM_P2
2024/04/06 00:01:21;;;;;;;;;;;15.60;40.10;;;;;;5024186;28;20037;-83
2024/04/06 00:03:47;;;;;;;1999.90;999.90;;;15.70;40.00;;;;;;5023538;28;20434;-81
2024/04/06 00:06:13;;;;;;;1999.90;999.90;;;15.60;40.20;;;;;;5020382;28;20041;-82
2024/04/06 00:08:38;;;;;;;1999.90;999.90;;;15.40;40.90;;;;;;5021995;28;20909;-82
2024/04/06 00:11:04;;;;;;;1999.90;999.90;;;15.50;40.30;;;;;;5022812;28;20033;-81
2024/04/06 00:13:30;;;;;;;1999.90;999.90;;;15.60;41.20;;;;;;5021890;28;20025;-83
2024/04/06 00:15:55;;;;;;;1999.90;999.90;;;15.40;40.40;;;;;;5022922;28;20029;-81
2024/04/06 00:18:21;;;;;;;1999.90;999.90;;;15.50;40.40;;;;;;5021474;28;20681;-81
2024/04/06 00:20:47;;;;;;;1999.90;999.90;;;15.40;40.10;;;;;;5023139;28;20075;-80
2024/04/06 00:23:12;;;;;;;1999.90;999.90;;;15.50;40.00;;;;;;5025139;28;20041;-84
2024/04/06 00:25:38;;;;;;;1999.90;999.90;;;15.30;40.80;;;;;;5023561;28;20026;-82
2024/04/06 00:28:04;;;;;;;1999.90;999.90;;;15.40;40.20;;;;;;5022587;28;20520;-81
2024/04/06 00:30:30;;;;;;;1999.90;999.90;;;15.30;40.40;;;;;;5020677;28;20073;-83
2024/04/06 00:32:55;;;;;;;1999.90;999.90;;;15.40;40.00;;;;;;5022697;28;20116;-81
2024/04/06 00:35:21;;;;;;;1999.90;999.90;;;15.50;39.80;;;;;;5023630;28;20475;-83
2024/04/06 00:37:49;;;;;;;1999.90;999.90;;;15.30;40.30;;;;;;5022018;28;20437;-81
2024/04/06 00:40:15;;;;;;;1999.90;999.90;;;15.30;40.30;;;;;;5023133;28;20493;-81
2024/04/06 00:42:41;;;;;;;1999.90;999.90;;;15.30;40.40;;;;;;5022540;28;20041;-82
2024/04/06 00:45:08;;;;;;;1999.90;999.90;;;15.20;40.50;;;;;;5023043;28;20744;-81
2024/04/06 00:47:34;;;;;;;1999.90;999.90;;;15.20;40.40;;;;;;5022726;28;20489;-81
2024/04/06 00:50:00;;;;;;;;;;;15.10;40.50;;;;;;5023406;28;20056;-82
2024/04/06 00:52:26;;;;;;;1999.90;999.90;;;15.30;39.80;;;;;;5022486;28;19929;-82
2024/04/06 00:54:51;;;;;;;1999.90;999.90;;;15.20;40.60;;;;;;5022676;28;20272;-84
2024/04/06 00:57:17;;;;;;;1999.90;999.90;;;15.30;39.70;;;;;;5021867;28;20535;-82
2024/04/06 00:59:43;;;;;;;1999.90;999.90;;;15.20;40.30;;;;;;5023269;28;20033;-83
2024/04/06 01:02:09;;;;;;;1999.90;999.90;;;15.20;40.20;;;;;;5022828;28;20026;-81
2024/04/06 01:04:34;;;;;;;1999.90;999.90;;;15.20;40.00;;;;;;5022555;28;20044;-81
2024/04/06 01:07:00;;;;;;;1999.90;999.90;;;15.20;40.10;;;;;;5022972;28;20022;-82
2024/04/06 01:09:26;;;;;;;1999.90;999.90;;;15.20;40.00;;;;;;5024289;28;20492;-81
2024/04/06 01:11:52;;;;;;;1999.90;999.90;;;15.20;40.10;;;;;;5015995;28;20029;-81
2024/04/06 01:14:18;;;;;;;1999.90;999.90;;;15.30;39.50;;;;;;5021410;28;20091;-81
2024/04/06 01:16:43;;;;;;;1999.90;999.90;;;15.20;40.10;;;;;;5021952;28;20123;-81
2024/04/06 01:19:09;;;;;;;1999.90;999.90;;;15.10;40.20;;;;;;5022102;28;20043;-80
2024/04/06 01:21:35;;;;;;;1999.90;999.90;;;15.20;39.90;;;;;;5024296;28;20025;-80
2024/04/06 01:24:25;;;;;;;1999.90;999.90;;;15.20;39.90;;;;;;5022755;28;20057;-81
2024/04/06 01:26:51;;;;;;;1999.90;999.90;;;15.20;39.90;;;;;;5020930;28;20026;-81
2024/04/06 01:29:17;;;;;;;1999.90;999.90;;;15.10;39.80;;;;;;5022434;28;20038;-82
2024/04/06 01:31:43;;;;;;;1999.90;999.90;;;15.20;40.10;;;;;;5022325;28;20292;-79
2024/04/06 01:34:09;;;;;;;1999.90;999.90;;;15.20;39.70;;;;;;5021760;28;20104;-80
2024/04/06 01:36:35;;;;;;;1999.90;999.90;;;15.00;40.30;;;;;;5020632;28;20041;-80
2024/04/06 01:39:00;;;;;;;1999.90;999.90;;;15.00;40.10;;;;;;5022137;28;20025;-79
2024/04/06 01:41:26;;;;;;;1999.90;999.90;;;15.10;40.60;;;;;;5021879;28;20155;-80
2024/04/06 01:43:52;;;;;;;1999.90;999.90;;;15.10;40.00;;;;;;5021286;28;20095;-80
2024/04/06 01:46:19;;;;;;;1999.90;999.90;;;15.10;40.00;;;;;;5021923;28;20079;-81
2024/04/06 01:48:45;;;;;;;1999.90;999.90;;;15.10;39.80;;;;;;5021620;28;20060;-81
2024/04/06 01:51:11;;;;;;;1999.90;999.90;;;15.10;39.80;;;;;;5021179;28;20022;-81
2024/04/06 01:53:36;;;;;;;1999.90;999.90;;;15.10;39.70;;;;;;5020172;28;20794;-82
2024/04/06 01:56:02;;;;;;;1999.90;999.90;;;14.90;40.50;;;;;;5020752;28;20128;-81
2024/04/06 01:58:28;;;;;;;1999.90;999.90;;;15.10;40.30;;;;;;5019983;28;20116;-81
2024/04/06 02:00:53;;;;;;;1999.90;999.90;;;15.20;39.70;;;;;;5021578;28;20029;-81
2024/04/06 02:03:21;;;;;;;1999.90;999.90;;;15.10;39.70;;;;;;5021516;28;20060;-82
2024/04/06 02:05:47;;;;;;;1999.90;999.90;;;15.10;39.70;;;;;;5019166;28;20079;-82
2024/04/06 02:08:13;;;;;;;1999.90;999.90;;;15.10;39.80;;;;;;5020455;28;20041;-81
2024/04/06 02:10:38;;;;;;;1999.90;999.90;;;15.10;39.40;;;;;;5025631;28;20033;-82
2024/04/06 02:13:05;;;;;;;1999.90;999.90;;;15.20;39.50;;;;;;5028339;28;20136;-82
2024/04/06 02:15:30;;;;;;;1999.90;999.90;;;15.20;39.40;;;;;;5030079;28;20022;-81
2024/04/06 02:17:56;;;;;;;1999.90;999.90;;;15.10;39.70;;;;;;5029847;28;20040;-81
2024/04/06 02:20:22;;;;;;;1999.90;999.90;;;15.10;40.20;;;;;;5023812;28;20041;-82
2024/04/06 02:22:47;;;;;;;1999.90;999.90;;;15.00;39.80;;;;;;5023923;28;20079;-82
2024/04/06 02:25:13;;;;;;;1999.90;999.90;;;15.10;39.50;;;;;;5025295;28;20041;-82
2024/04/06 02:27:39;;;;;;;1999.90;999.90;;;14.90;40.40;;;;;;5025189;28;20553;-81
2024/04/06 02:30:06;;;;;;;1999.90;999.90;;;15.20;39.40;;;;;;5023538;28;20052;-81
2024/04/06 02:32:32;;;;;;;1999.90;999.90;;;15.10;39.50;;;;;;5025104;28;20045;-80
2024/04/06 02:34:58;;;;;;;1999.90;999.90;;;15.10;39.40;;;;;;5024527;28;20060;-80
2024/04/06 02:37:23;;;;;;;1999.90;999.90;;;15.00;39.40;;;;;;5027324;28;20113;-80
2024/04/06 02:39:49;;;;;;;1999.90;999.90;;;15.10;39.30;;;;;;5025180;28;20056;-82
2024/04/06 02:42:15;;;;;;;1999.90;999.90;;;15.00;39.70;;;;;;5023224;28;20041;-81
2024/04/06 02:44:41;;;;;;;1999.90;999.90;;;15.00;39.60;;;;;;5026828;28;20040;-82
2024/04/06 02:47:06;;;;;;;1999.90;999.90;;;15.00;39.90;;;;;;5024793;28;20144;-83
2024/04/06 02:49:32;;;;;;;1999.90;999.90;;;15.00;40.00;;;;;;5024900;28;20036;-82
2024/04/06 02:51:58;;;;;;;1999.90;999.90;;;14.80;39.90;;;;;;5024828;28;20033;-82
2024/04/06 02:54:23;;;;;;;1999.90;999.90;;;14.80;40.40;;;;;;5024857;28;20029;-82
2024/04/06 02:56:49;;;;;;;1999.90;999.90;;;14.70;40.40;;;;;;5024275;28;20045;-83
2024/04/06 02:59:15;;;;;;;1999.90;999.90;;;14.60;41.00;;;;;;5029361;28;20042;-82
2024/04/06 03:01:40;;;;;;;1999.90;999.90;;;14.90;39.70;;;;;;5024660;28;20033;-82
2024/04/06 03:04:06;;;;;;;1999.90;999.90;;;14.70;40.50;;;;;;5024627;28;20037;-81
2024/04/06 03:06:32;;;;;;;1999.90;999.90;;;14.80;40.10;;;;;;5024661;28;20694;-82
2024/04/06 03:08:57;;;;;;;1999.90;999.90;;;14.70;40.00;;;;;;5025213;28;20108;-81
2024/04/06 03:11:23;;;;;;;1999.90;999.90;;;14.90;39.60;;;;;;5024914;28;20125;-82
2024/04/06 03:13:48;;;;;;;1999.90;999.90;;;14.60;40.50;;;;;;5022675;28;20029;-83
2024/04/06 03:16:14;;;;;;;1999.90;999.90;;;14.90;39.70;;;;;;5024452;28;20039;-82
2024/04/06 03:18:40;;;;;;;1999.90;999.90;;;14.70;40.40;;;;;;5025926;28;20481;-82
2024/04/06 03:21:07;;;;;;;1999.90;999.90;;;14.80;39.90;;;;;;5024269;28;20140;-81
2024/04/06 03:23:32;;;;;;;1999.90;999.90;;;14.90;39.40;;;;;;5024248;28;20036;-82
2024/04/06 03:25:58;;;;;;;1999.90;999.90;;;14.70;40.20;;;;;;5024011;28;20033;-82
2024/04/06 03:28:24;;;;;;;1999.90;999.90;;;14.70;40.10;;;;;;5022875;28;20029;-81
2024/04/06 03:30:49;;;;;;;1999.90;999.90;;;14.80;40.10;;;;;;5024704;28;20033;-81
2024/04/06 03:33:15;;;;;;;1999.90;999.90;;;14.60;40.10;;;;;;5022251;28;20042;-80
2024/04/06 03:35:41;;;;;;;1999.90;999.90;;;14.60;40.10;;;;;;5022615;28;20045;-80
2024/04/06 03:38:06;;;;;;;1999.90;999.90;;;14.70;40.20;;;;;;5025772;28;20032;-80
2024/04/06 03:40:32;;;;;;;1999.90;999.90;;;14.70;40.10;;;;;;5032325;28;20059;-81
2024/04/06 03:42:59;;;;;;;1999.90;999.90;;;14.80;39.60;;;;;;5023861;28;20060;-80
2024/04/06 03:45:28;;;;;;;1999.90;999.90;;;14.80;39.40;;;;;;5022248;28;20037;-81
2024/04/06 03:47:54;;;;;;;1999.90;999.90;;;14.60;40.40;;;;;;5024052;28;20022;-81
2024/04/06 03:50:20;;;;;;;1999.90;999.90;;;14.60;40.00;;;;;;5023649;28;20032;-82
2024/04/06 03:52:46;;;;;;;1999.90;999.90;;;14.40;41.10;;;;;;5025867;28;20453;-81
2024/04/06 03:55:12;;;;;;;1999.90;999.90;;;14.40;41.10;;;;;;5021852;28;20081;-84
2024/04/06 03:57:38;;;;;;;1999.90;999.90;;;14.60;40.60;;;;;;5023291;28;20048;-83
2024/04/06 04:00:08;;;;;;;1999.90;999.90;;;14.60;40.10;;;;;;5023846;28;20104;-81
2024/04/06 04:02:37;;;;;;;1999.90;999.90;;;14.50;40.30;;;;;;5023090;28;20548;-82
2024/04/06 04:05:04;;;;;;;1999.90;999.90;;;14.50;40.20;;;;;;5023374;28;20032;-81
2024/04/06 04:07:33;;;;;;;1999.90;999.90;;;14.60;40.30;;;;;;5024504;28;20029;-82
2024/04/06 04:10:03;;;;;;;1999.90;999.90;;;14.60;40.80;;;;;;5023134;28;20033;-80
2024/04/06 04:12:29;;;;;;;1999.90;999.90;;;14.50;40.50;;;;;;5020596;28;20535;-80
2024/04/06 04:14:59;;;;;;;1999.90;999.90;;;14.70;40.60;;;;;;5024441;28;20167;-81
2024/04/06 04:17:24;;;;;;;1999.90;999.90;;;14.80;39.80;;;;;;5027056;28;20136;-80
2024/04/06 04:19:50;;;;;;;1999.90;999.90;;;14.90;39.80;;;;;;5021187;28;20025;-80
2024/04/06 04:22:16;;;;;;;1999.90;999.90;;;14.90;39.70;;;;;;5022764;28;20041;-81
2024/04/06 04:24:41;;;;;;;1999.90;999.90;;;14.90;39.70;;;;;;5022581;28;20017;-80
2024/04/06 04:27:07;;;;;;;1999.90;999.90;;;14.80;40.20;;;;;;5054462;28;20057;-84
2024/04/06 04:29:33;;;;;;;1999.90;999.90;;;14.80;39.80;;;;;;5022462;28;20032;-83
2024/04/06 04:31:59;;;;;;;1999.90;999.90;;;14.80;40.00;;;;;;5024391;28;20365;-82
2024/04/06 04:34:24;;;;;;;1999.90;999.90;;;14.80;39.70;;;;;;5022776;28;20064;-82
2024/04/06 04:36:50;;;;;;;1999.90;999.90;;;14.90;39.90;;;;;;5022124;28;20464;-82
2024/04/06 04:39:16;;;;;;;1999.90;999.90;;;14.90;39.80;;;;;;5024206;28;20026;-83
2024/04/06 04:41:43;;;;;;;1999.90;999.90;;;14.80;40.20;;;;;;5024388;28;20033;-83
2024/04/06 04:44:08;;;;;;;;;;;14.90;40.20;;;;;;5022049;28;20033;-83
2024/04/06 04:46:34;;;;;;;1999.90;999.90;;;14.60;41.90;;;;;;5023347;28;19952;-82
2024/04/06 04:49:00;;;;;;;1999.90;999.90;;;14.70;40.60;;;;;;5027375;28;20072;-81
2024/04/06 04:51:26;;;;;;;1999.90;999.90;;;14.70;41.00;;;;;;5022800;28;20069;-82
2024/04/06 04:53:53;;;;;;;1999.90;999.90;;;14.70;40.40;;;;;;5021727;28;20068;-84
2024/04/06 04:56:19;;;;;;;1999.90;999.90;;;14.80;40.20;;;;;;5018114;28;20096;-84
2024/04/06 04:58:45;;;;;;;1999.90;999.90;;;14.90;40.00;;;;;;5028398;28;20045;-84
2024/04/06 05:01:11;;;;;;;;;;;14.80;40.50;;;;;;5024126;28;20485;-83
2024/04/06 05:03:37;;;;;;;1999.90;999.90;;;14.70;40.30;;;;;;5022600;28;19909;-83
2024/04/06 05:06:03;;;;;;;1999.90;999.90;;;14.60;41.00;;;;;;5022786;28;20029;-83
2024/04/06 05:08:29;;;;;;;1999.90;999.90;;;14.70;40.50;;;;;;5021057;28;20025;-83
2024/04/06 05:10:55;;;;;;;1999.90;999.90;;;14.70;41.20;;;;;;5021806;28;20131;-83
2024/04/06 05:13:21;;;;;;;1999.90;999.90;;;14.80;40.20;;;;;;5019447;28;20040;-79
2024/04/06 05:15:52;;;;;;;1999.90;999.90;;;14.70;40.50;;;;;;5026870;28;20030;-80
2024/04/06 05:18:19;;;;;;;1999.90;999.90;;;14.80;40.40;;;;;;5025454;28;20032;-80
2024/04/06 05:20:54;;;;;;;1999.90;999.90;;;14.60;40.70;;;;;;5021115;28;20626;-80
2024/04/06 05:23:21;;;;;;;1999.90;999.90;;;14.70;40.80;;;;;;5021271;28;20048;-81
2024/04/06 05:25:48;;;;;;;1999.90;999.90;;;14.60;41.00;;;;;;5022033;28;20528;-81
2024/04/06 05:28:16;;;;;;;1999.90;999.90;;;14.50;41.00;;;;;;5020908;28;20610;-81
2024/04/06 05:30:44;;;;;;;1999.90;999.90;;;14.70;40.90;;;;;;5020127;28;20022;-81
2024/04/06 05:33:10;;;;;;;1999.90;999.90;;;14.60;40.80;;;;;;5017976;28;20631;-82
2024/04/06 05:35:36;;;;;;;1999.90;999.90;;;14.70;41.20;;;;;;5021721;28;20032;-82
2024/04/06 05:38:03;;;;;;;1999.90;999.90;;;14.70;40.80;;;;;;5021224;28;20033;-82
2024/04/06 05:40:28;;;;;;;1999.90;999.90;;;14.80;40.60;;;;;;5020117;28;20582;-81
2024/04/06 05:42:54;;;;;;;1999.90;999.90;;;14.70;41.00;;;;;;5021324;28;20030;-83
2024/04/06 05:45:19;;;;;;;1999.90;999.90;;;14.90;40.30;;;;;;5021607;28;20040;-81
2024/04/06 05:47:45;;;;;;;1999.90;999.90;;;15.00;40.20;;;;;;5020087;28;20051;-80
2024/04/06 05:50:11;;;;;;;1999.90;999.90;;;15.10;40.00;;;;;;5021732;28;20489;-81
2024/04/06 05:52:36;;;;;;;1999.90;999.90;;;15.30;40.00;;;;;;5021873;28;20534;-81
2024/04/06 05:55:05;;;;;;;1999.90;999.90;;;15.40;39.50;;;;;;5021114;28;20036;-81
2024/04/06 05:57:31;;;;;;;1999.90;999.90;;;15.70;39.00;;;;;;5017572;28;20099;-81
2024/04/06 05:59:56;;;;;;;1999.90;999.90;;;15.80;38.60;;;;;;5022382;28;20033;-80
2024/04/06 06:02:22;;;;;;;1999.90;999.90;;;16.20;38.40;;;;;;5022048;28;20272;-80
2024/04/06 06:04:48;;;;;;;1999.90;999.90;;;16.40;38.20;;;;;;5016336;28;20434;-80
2024/04/06 06:07:14;;;;;;;1999.90;999.90;;;16.70;37.50;;;;;;5021562;28;20481;-81
2024/04/06 06:09:39;;;;;;;1999.90;999.90;;;16.90;37.20;;;;;;5021470;28;20033;-81
2024/04/06 06:12:05;;;;;;;1999.90;999.90;;;17.30;36.60;;;;;;5020162;28;20555;-81
2024/04/06 06:14:31;;;;;;;1999.90;999.90;;;17.40;35.90;;;;;;5022542;28;20035;-81
2024/04/06 06:16:56;;;;;;;1999.90;999.90;;;17.40;36.10;;;;;;5025800;28;20663;-80
2024/04/06 06:19:22;;;;;;;1999.90;999.90;;;17.80;36.20;;;;;;5021831;28;20036;-82
2024/04/06 06:21:48;;;;;;;1999.90;999.90;;;18.10;34.80;;;;;;5022010;28;20560;-83
2024/04/06 06:24:14;;;;;;;1999.90;999.90;;;18.30;34.70;;;;;;5020194;28;20417;-84
2024/04/06 06:26:39;;;;;;;1999.90;999.90;;;18.20;35.00;;;;;;5026308;28;20393;-84
2024/04/06 06:29:05;;;;;;;1999.90;999.90;;;18.20;33.80;;;;;;5023418;28;20033;-84
2024/04/06 06:31:31;;;;;;;1999.90;999.90;;;18.40;34.30;;;;;;5021392;28;20041;-84
2024/04/06 06:33:57;;;;;;;1999.90;999.90;;;19.30;33.80;;;;;;5022005;28;20029;-84
2024/04/06 06:36:23;;;;;;;1999.90;999.90;;;19.50;33.50;;;;;;5021162;28;20030;-84
2024/04/06 06:38:49;;;;;;;1999.90;999.90;;;19.50;32.90;;;;;;5052852;28;20029;-82
2024/04/06 06:41:15;;;;;;;1999.90;999.90;;;19.30;32.90;;;;;;5020829;28;20043;-82
2024/04/06 06:43:41;;;;;;;1999.90;999.90;;;19.50;33.20;;;;;;5020731;28;20405;-80
2024/04/06 06:46:07;;;;;;;1999.90;999.90;;;19.50;32.90;;;;;;5020425;28;20029;-83
2024/04/06 06:48:33;;;;;;;1999.90;999.90;;;19.00;33.20;;;;;;5019549;28;20117;-81
2024/04/06 06:50:59;;;;;;;1999.90;999.90;;;18.50;34.80;;;;;;5020759;28;20032;-82
2024/04/06 06:53:24;;;;;;;1999.90;999.90;;;18.40;34.70;;;;;;5020926;28;20898;-81
2024/04/06 06:55:50;;;;;;;1999.90;999.90;;;18.70;34.20;;;;;;5022957;28;20055;-82
2024/04/06 06:58:16;;;;;;;1999.90;999.90;;;19.20;34.80;;;;;;5025011;28;20033;-81
2024/04/06 07:00:45;;;;;;;1999.90;999.90;;;18.90;33.10;;;;;;5027273;28;20104;-82
2024/04/06 07:03:11;;;;;;;1999.90;999.90;;;18.90;34.10;;;;;;5025766;28;20062;-81
2024/04/06 07:05:37;;;;;;;1999.90;999.90;;;19.10;33.70;;;;;;5024536;28;20124;-79
2024/04/06 07:08:03;;;;;;;1999.90;999.90;;;19.60;32.60;;;;;;5023798;28;20572;-80
2024/04/06 07:10:29;;;;;;;1999.90;999.90;;;20.10;32.50;;;;;;5024165;28;20043;-80
2024/04/06 07:12:55;;;;;;;1999.90;999.90;;;20.20;31.90;;;;;;5024662;28;20037;-82
2024/04/06 07:15:20;;;;;;;1999.90;999.90;;;20.30;31.70;;;;;;5029707;28;20041;-81
2024/04/06 07:17:46;;;;;;;1999.90;999.90;;;20.80;31.20;;;;;;5024964;28;20037;-81
2024/04/06 07:20:12;;;;;;;1999.90;999.90;;;21.20;31.00;;;;;;5025086;28;20018;-83
2024/04/06 07:22:39;;;;;;;1999.90;999.90;;;22.10;29.60;;;;;;5023775;28;20651;-80
2024/04/06 07:25:05;;;;;;;1999.90;999.90;;;21.80;30.00;;;;;;5024013;28;20148;-82
2024/04/06 07:27:31;;;;;;;1999.90;999.90;;;21.80;30.20;;;;;;5030910;28;20792;-80
2024/04/06 07:29:56;;;;;;;1999.90;999.90;;;22.00;29.20;;;;;;5024049;28;20025;-81
2024/04/06 07:32:22;;;;;;;1999.90;999.90;;;22.60;29.10;;;;;;5023149;28;20037;-82
2024/04/06 07:34:48;;;;;;;1999.90;999.90;;;22.20;29.40;;;;;;5023643;28;20034;-83
2024/04/06 07:37:13;;;;;;;1999.90;999.90;;;22.50;29.70;;;;;;5023770;28;20030;-80
2024/04/06 07:39:39;;;;;;;1999.90;999.90;;;22.60;28.80;;;;;;5023565;28;20033;-81
2024/04/06 07:42:05;;;;;;;1999.90;999.90;;;23.00;29.10;;;;;;5024469;28;20105;-85
2024/04/06 07:44:31;;;;;;;1999.90;999.90;;;22.90;29.20;;;;;;5023724;28;20037;-82
2024/04/06 07:46:56;;;;;;;1999.90;999.90;;;22.60;29.60;;;;;;5023635;28;20025;-83
2024/04/06 07:49:22;;;;;;;1999.90;999.90;;;22.60;29.30;;;;;;5023608;28;20037;-83
2024/04/06 07:51:48;;;;;;;1999.90;999.90;;;23.00;29.30;;;;;;5023148;28;20041;-84
2024/04/06 07:54:14;;;;;;;1999.90;999.90;;;23.20;29.40;;;;;;5020969;28;20120;-83
2024/04/06 07:56:39;;;;;;;1999.90;999.90;;;22.90;29.50;;;;;;5022640;28;20065;-83
2024/04/06 07:59:05;;;;;;;1999.90;999.90;;;22.60;29.20;;;;;;5022696;28;20545;-85
2024/04/06 08:01:31;;;;;;;1999.90;999.90;;;23.20;29.40;;;;;;5024241;28;20030;-87
2024/04/06 08:03:56;;;;;;;1999.90;999.90;;;23.50;29.30;;;;;;5018212;28;20564;-85
2024/04/06 08:06:22;;;;;;;1999.90;999.90;;;23.40;28.40;;;;;;5016518;28;20038;-84
2024/04/06 08:08:48;;;;;;;1999.90;999.90;;;23.70;29.10;;;;;;5020712;28;20036;-86
2024/04/06 08:11:13;;;;;;;1999.90;999.90;;;23.70;28.90;;;;;;5020194;28;20132;-85
2024/04/06 08:13:39;;;;;;;1999.90;999.90;;;24.30;29.00;;;;;;5024196;28;20029;-86
2024/04/06 08:16:05;;;;;;;1999.90;999.90;;;23.80;28.70;;;;;;5026568;28;20044;-85
2024/04/06 08:18:31;;;;;;;1999.90;999.90;;;23.00;29.80;;;;;;5025418;28;20037;-86
2024/04/06 08:20:56;;;;;;;1999.90;999.90;;;22.30;29.90;;;;;;5023294;28;20037;-86
2024/04/06 08:23:22;;;;;;;1999.90;999.90;;;23.20;29.40;;;;;;5022749;28;20081;-86
2024/04/06 08:25:54;;;;;;;1999.90;999.90;;;22.80;29.80;;;;;;5021046;28;20036;-86
2024/04/06 08:28:21;;;;;;;1999.90;999.90;;;23.10;29.50;;;;;;5022003;28;20037;-85
2024/04/06 08:30:46;;;;;;;;;;;23.10;30.00;;;;;;5016982;28;20045;-85
2024/04/06 08:33:12;;;;;;;1999.90;999.90;;;23.10;29.60;;;;;;5022199;28;19939;-86
2024/04/06 08:35:38;;;;;;;1999.90;999.90;;;23.60;29.40;;;;;;5019537;28;20047;-85
2024/04/06 08:38:04;;;;;;;1999.90;999.90;;;23.60;28.70;;;;;;5020902;28;20112;-84
2024/04/06 08:40:30;;;;;;;1999.90;999.90;;;23.20;29.90;;;;;;5022282;28;20597;-85
2024/04/06 08:42:56;;;;;;;;;;;23.50;30.50;;;;;;5023209;28;20037;-83
2024/04/06 08:45:24;;;;;;;1999.90;999.90;;;23.30;30.00;;;;;;5019825;28;19909;-85
2024/04/06 08:47:52;;;;;;;1999.90;999.90;;;23.80;29.30;;;;;;5020082;28;20048;-85
2024/04/06 08:50:17;;;;;;;1999.90;999.90;;;23.30;28.90;;;;;;5018752;28;20071;-87
2024/04/06 08:52:44;;;;;;;1999.90;999.90;;;24.30;28.60;;;;;;5022436;28;20037;-84
2024/04/06 08:55:10;;;;;;;1999.90;999.90;;;24.90;27.80;;;;;;5021187;28;20046;-84
2024/04/06 08:57:37;;;;;;;1999.90;999.90;;;24.30;28.00;;;;;;5022497;28;20040;-84
2024/04/06 09:00:07;;;;;;;1999.90;999.90;;;25.20;27.50;;;;;;5021534;28;20551;-84
2024/04/06 09:02:34;;;;;;;1999.90;999.90;;;25.30;29.10;;;;;;5022649;28;20053;-84
2024/04/06 09:05:01;;;;;;;1999.90;999.90;;;25.10;28.70;;;;;;5023513;28;20030;-85
2024/04/06 09:07:26;;;;;;;1999.90;999.90;;;24.40;28.20;;;;;;5020719;28;20512;-86
2024/04/06 09:09:53;;;;;;;1999.90;999.90;;;24.80;29.00;;;;;;5022132;28;20025;-85
2024/04/06 09:12:19;;;;;;;1999.90;999.90;;;24.30;28.60;;;;;;5019977;28;20091;-86
2024/04/06 09:14:46;;;;;;;1999.90;999.90;;;24.60;28.20;;;;;;5025952;28;20041;-85
2024/04/06 09:17:14;;;;;;;1999.90;999.90;;;24.50;27.80;;;;;;5024283;28;20052;-83
2024/04/06 09:19:40;;;;;;;1999.90;999.90;;;24.80;28.30;;;;;;5018835;28;20026;-85
2024/04/06 09:22:06;;;;;;;1999.90;999.90;;;24.40;28.20;;;;;;5019980;28;21371;-82
2024/04/06 09:24:32;;;;;;;1999.90;999.90;;;24.70;28.80;;;;;;5022526;28;20121;-80
2024/04/06 09:27:16;;;;;;;1999.90;999.90;;;24.20;28.60;;;;;;5020075;28;20030;-78
2024/04/06 09:29:48;;;;;;;1999.90;999.90;;;24.30;29.30;;;;;;5018515;28;20708;-79
2024/04/06 09:32:18;;;;;;;1999.90;999.90;;;23.10;30.00;;;;;;5025737;28;20471;-79
2024/04/06 09:34:51;;;;;;;1999.90;999.90;;;22.80;30.10;;;;;;5018682;28;20030;-79
2024/04/06 09:37:39;;;;;;;1999.90;999.90;;;23.20;30.00;;;;;;5022848;28;20068;-80
2024/04/06 09:40:08;;;;;;;1999.90;999.90;;;23.30;31.10;;;;;;5019596;28;20046;-79
2024/04/06 09:42:38;;;;;;;1999.90;999.90;;;23.20;30.50;;;;;;5021671;28;20148;-80
2024/04/06 09:45:05;;;;;;;1999.90;999.90;;;23.00;30.00;;;;;;5021680;28;20032;-79
2024/04/06 09:47:32;;;;;;;1999.90;999.90;;;22.90;31.30;;;;;;5020246;28;20694;-80
2024/04/06 09:50:00;;;;;;;;;;;23.00;31.50;;;;;;5022283;28;20037;-80
2024/04/06 09:52:26;;;;;;;1999.90;999.90;;;22.70;30.80;;;;;;5029408;28;20273;-79
2024/04/06 09:54:53;;;;;;;1999.90;999.90;;;22.90;31.10;;;;;;5021619;28;20025;-81
2024/04/06 09:57:21;;;;;;;1999.90;999.90;;;23.00;31.00;;;;;;5021268;28;20053;-79
2024/04/06 09:59:47;;;;;;;1999.90;999.90;;;22.60;31.30;;;;;;5021364;28;20033;-84
2024/04/06 10:02:22;;;;;;;1999.90;999.90;;;22.70;33.20;;;;;;5021795;28;20022;-83
2024/04/06 10:04:56;;;;;;;1999.90;999.90;;;22.80;33.90;;;;;;5021938;28;20129;-83
2024/04/06 10:07:32;;;;;;;1999.90;999.90;;;22.50;32.30;;;;;;5021483;28;20056;-83
2024/04/06 10:10:08;;;;;;;1999.90;999.90;;;22.30;33.30;;;;;;5020547;28;20022;-83
2024/04/06 10:12:52;;;;;;;1999.90;999.90;;;22.40;33.60;;;;;;5019814;28;20038;-83
2024/04/06 10:15:20;;;;;;;1999.90;999.90;;;22.40;33.50;;;;;;5023302;28;20029;-82
2024/04/06 10:17:47;;;;;;;1999.90;999.90;;;22.50;31.50;;;;;;5021275;28;20779;-82
2024/04/06 10:20:16;;;;;;;1999.90;999.90;;;22.60;31.60;;;;;;5019239;28;20029;-81
2024/04/06 10:22:50;;;;;;;1999.90;999.90;;;22.70;31.20;;;;;;5019171;28;20053;-82
2024/04/06 10:25:20;;;;;;;1999.90;999.90;;;22.90;34.50;;;;;;5020587;28;20022;-86
2024/04/06 10:27:47;;;;;;;1999.90;999.90;;;23.40;32.10;;;;;;5020886;28;20025;-85
2024/04/06 10:30:12;;;;;;;;;;;23.20;31.40;;;;;;5020110;28;20022;-84
2024/04/06 10:32:38;;;;;;;1999.90;999.90;;;23.30;32.90;;;;;;5025077;28;19921;-85
2024/04/06 10:35:04;;;;;;;1999.90;999.90;;;23.60;32.90;;;;;;5024160;28;20045;-84
2024/04/06 10:37:30;;;;;;;1999.90;999.90;;;23.40;34.40;;;;;;5025132;28;20060;-85
2024/04/06 10:39:56;;;;;;;1999.90;999.90;;;23.80;32.00;;;;;;5024901;28;20109;-84
2024/04/06 10:42:26;;;;;;;1999.90;999.90;;;24.20;32.90;;;;;;5023583;28;20582;-84
2024/04/06 10:44:52;;;;;;;1999.90;999.90;;;24.50;32.10;;;;;;5031054;28;20044;-85
2024/04/06 10:47:18;;;;;;;1999.90;999.90;;;24.40;31.90;;;;;;5023072;28;20079;-85
2024/04/06 10:49:47;;;;;;;1999.90;999.90;;;24.30;32.20;;;;;;5049185;28;20559;-85
2024/04/06 10:52:13;;;;;;;1999.90;999.90;;;24.30;33.50;;;;;;5025748;28;20026;-84
2024/04/06 10:54:39;;;;;;;1999.90;999.90;;;24.40;32.90;;;;;;5028288;28;20033;-85
2024/04/06 10:57:05;;;;;;;1999.90;999.90;;;24.70;35.40;;;;;;5051397;28;20061;-84
2024/04/06 10:59:31;;;;;;;1999.90;999.90;;;24.00;32.60;;;;;;5022880;28;20579;-85
2024/04/06 11:01:57;;;;;;;1999.90;999.90;;;24.10;35.10;;;;;;5024108;28;20037;-85
2024/04/06 11:04:24;;;;;;;1999.90;999.90;;;23.80;33.50;;;;;;5028008;28;20039;-85
2024/04/06 11:06:49;;;;;;;1999.90;999.90;;;24.30;34.00;;;;;;5023992;28;20060;-84
2024/04/06 11:09:15;;;;;;;1999.90;999.90;;;24.10;33.20;;;;;;5024460;28;20108;-84
2024/04/06 11:11:41;;;;;;;1999.90;999.90;;;23.60;33.80;;;;;;5023258;28;20077;-83
2024/04/06 11:14:10;;;;;;;1999.90;999.90;;;23.70;33.80;;;;;;5024984;28;20041;-83
2024/04/06 11:16:40;;;;;;;1999.90;999.90;;;23.80;34.10;;;;;;5022802;28;20553;-88
2024/04/06 11:19:06;;;;;;;1999.90;999.90;;;23.60;34.10;;;;;;5027038;28;20175;-88
2024/04/06 11:21:33;;;;;;;1999.90;999.90;;;23.50;35.60;;;;;;5024525;28;20037;-86
2024/04/06 11:23:59;;;;;;;1999.90;999.90;;;23.30;34.30;;;;;;5027386;28;20036;-86
2024/04/06 11:26:25;;;;;;;1999.90;999.90;;;23.30;34.70;;;;;;5024236;28;20029;-87
2024/04/06 11:28:51;;;;;;;1999.90;999.90;;;23.20;36.20;;;;;;5021594;28;20057;-86
2024/04/06 11:31:21;;;;;;;1999.90;999.90;;;23.50;35.70;;;;;;5024262;28;20128;-83
2024/04/06 11:33:47;;;;;;;1999.90;999.90;;;23.40;35.00;;;;;;5023417;28;20099;-85
2024/04/06 11:36:13;;;;;;;1999.90;999.90;;;23.40;35.10;;;;;;5023667;28;20205;-86
2024/04/06 11:38:38;;;;;;;1999.90;999.90;;;23.40;35.70;;;;;;5023494;28;20756;-83
2024/04/06 11:41:04;;;;;;;1999.90;999.90;;;23.60;35.30;;;;;;5023413;28;20028;-80
2024/04/06 11:43:31;;;;;;;1999.90;999.90;;;23.60;35.90;;;;;;5022941;28;20073;-80
2024/04/06 11:45:57;;;;;;;1999.90;999.90;;;23.70;35.50;;;;;;5014958;28;20048;-81
2024/04/06 11:48:22;;;;;;;1999.90;999.90;;;23.30;36.50;;;;;;5022514;28;20798;-79
2024/04/06 11:50:48;;;;;;;1999.90;999.90;;;23.40;37.20;;;;;;5023211;28;20030;-79
2024/04/06 11:53:14;;;;;;;1999.90;999.90;;;23.30;36.40;;;;;;5023114;28;20037;-80
2024/04/06 11:55:40;;;;;;;1999.90;999.90;;;23.40;35.30;;;;;;5021758;28;20054;-80
2024/04/06 11:58:06;;;;;;;1999.90;999.90;;;23.40;34.80;;;;;;5019950;28;20123;-80
2024/04/06 12:00:32;;;;;;;;;;;23.40;36.40;;;;;;5019542;28;20500;-81